createdAt,value
2022-12-03T00:00:13.506Z,81.90
2022-12-03T00:01:13.620Z,82.30
2022-12-03T00:02:13.984Z,82.70
2022-12-03T00:03:13.472Z,82.10
2022-12-03T00:04:13.595Z,82.00
2022-12-03T00:05:14.071Z,82.30
2022-12-03T00:06:13.421Z,82.40
2022-12-03T00:07:13.292Z,82.00
2022-12-03T00:08:13.350Z,82.00
2022-12-03T00:09:13.412Z,81.70
2022-12-03T00:10:13.321Z,82.10
2022-12-03T00:11:13.477Z,82.30
2022-12-03T00:12:13.365Z,82.50
2022-12-03T00:13:13.176Z,82.40
2022-12-03T00:14:13.183Z,81.90
2022-12-03T00:15:13.342Z,82.10
2022-12-03T00:16:13.317Z,82.10
2022-12-03T00:17:13.429Z,82.00
2022-12-03T00:18:13.533Z,81.90
2022-12-03T00:19:13.594Z,82.80
2022-12-03T00:20:13.399Z,82.60
2022-12-03T00:21:13.244Z,81.80
2022-12-03T00:22:13.222Z,82.20
2022-12-03T00:23:13.289Z,81.90
2022-12-03T00:24:13.139Z,82.10
2022-12-03T00:25:13.039Z,81.80
2022-12-03T00:26:12.959Z,81.70
2022-12-03T00:27:12.953Z,82.00
2022-12-03T00:28:13.256Z,81.80
2022-12-03T00:29:13.331Z,81.40
2022-12-03T00:30:13.300Z,81.50
2022-12-03T00:31:13.407Z,81.50
2022-12-03T00:32:13.458Z,82.10
2022-12-03T00:33:13.710Z,81.70
2022-12-03T00:34:13.607Z,81.40
2022-12-03T00:35:13.570Z,81.20
2022-12-03T00:36:13.540Z,80.20
2022-12-03T00:37:13.481Z,80.40
2022-12-03T00:38:13.820Z,80.50
2022-12-03T00:39:13.785Z,81.70
2022-12-03T00:40:13.734Z,81.70
2022-12-03T00:41:14.008Z,81.50
2022-12-03T00:42:12.969Z,81.80
2022-12-03T00:43:13.115Z,81.70
2022-12-03T00:44:13.252Z,81.80
2022-12-03T00:45:13.199Z,81.70
2022-12-03T00:46:15.774Z,81.40
2022-12-03T00:47:13.816Z,81.60
2022-12-03T00:48:13.908Z,81.80
2022-12-03T00:49:13.038Z,81.90
2022-12-03T00:50:13.173Z,82.10
2022-12-03T00:51:13.150Z,81.90
2022-12-03T00:52:13.202Z,81.10
2022-12-03T00:53:13.071Z,80.70
2022-12-03T00:54:13.196Z,80.90
2022-12-03T00:55:13.249Z,81.20
2022-12-03T00:56:13.538Z,81.90
2022-12-03T00:57:13.475Z,81.70
2022-12-03T00:58:13.480Z,81.30
2022-12-03T00:59:13.417Z,81.00
2022-12-03T01:00:13.422Z,81.50
2022-12-03T01:01:13.744Z,82.00
2022-12-03T01:02:14.177Z,82.10
2022-12-03T01:03:13.355Z,81.60
2022-12-03T01:04:13.661Z,81.60
2022-12-03T01:05:13.789Z,82.20
2022-12-03T01:06:14.095Z,82.00
2022-12-03T01:07:13.258Z,82.00
2022-12-03T01:08:13.083Z,81.80
2022-12-03T01:09:12.917Z,81.40
2022-12-03T01:10:12.809Z,81.50
2022-12-03T01:11:13.903Z,81.80
2022-12-03T01:12:13.253Z,81.00
2022-12-03T01:13:13.188Z,81.30
2022-12-03T01:14:13.472Z,81.70
2022-12-03T01:15:13.385Z,81.60
2022-12-03T01:16:13.613Z,81.40
2022-12-03T01:17:13.626Z,81.30
2022-12-03T01:18:13.577Z,81.20
2022-12-03T01:19:13.492Z,81.40
2022-12-03T01:20:13.539Z,81.60
2022-12-03T01:21:13.670Z,80.90
2022-12-03T01:22:13.553Z,80.80
2022-12-03T01:23:13.673Z,81.60
2022-12-03T01:24:13.630Z,82.20
2022-12-03T01:25:13.755Z,82.30
2022-12-03T01:26:13.617Z,81.80
2022-12-03T01:28:13.564Z,81.70
2022-12-03T01:29:22.195Z,81.00
2022-12-03T01:30:13.478Z,81.60
2022-12-03T01:31:13.773Z,81.70
2022-12-03T01:32:13.797Z,81.30
2022-12-03T01:33:13.931Z,81.60
2022-12-03T01:34:13.157Z,82.00
2022-12-03T01:35:13.366Z,82.00
2022-12-03T01:36:13.289Z,82.00
2022-12-03T01:37:13.686Z,82.10
2022-12-03T01:38:13.735Z,81.80
2022-12-03T01:39:13.596Z,81.50
2022-12-03T01:40:13.457Z,81.60
2022-12-03T01:41:13.353Z,82.10
2022-12-03T01:42:13.380Z,82.00
2022-12-03T01:43:13.435Z,81.70
2022-12-03T01:44:13.271Z,81.80
2022-12-03T01:45:13.307Z,82.10
2022-12-03T01:46:13.344Z,81.30
2022-12-03T01:47:13.585Z,81.50
2022-12-03T01:48:13.700Z,81.60
2022-12-03T01:49:13.543Z,81.40
2022-12-03T01:50:13.527Z,81.10
2022-12-03T01:51:13.317Z,81.20
2022-12-03T01:52:13.213Z,81.60
2022-12-03T01:53:13.409Z,81.40
2022-12-03T01:54:13.349Z,81.80
2022-12-03T01:55:13.210Z,81.70
2022-12-03T01:56:13.358Z,81.20
2022-12-03T01:57:13.142Z,81.20
2022-12-03T01:58:13.310Z,81.50
2022-12-03T01:59:13.541Z,81.10
2022-12-03T02:00:13.523Z,81.30
2022-12-03T02:01:13.595Z,81.50
2022-12-03T02:02:13.498Z,81.50
2022-12-03T02:03:13.473Z,81.80
2022-12-03T02:04:13.941Z,81.50
2022-12-03T02:05:13.008Z,81.70
2022-12-03T02:06:13.003Z,81.80
2022-12-03T02:07:12.945Z,81.70
2022-12-03T02:08:13.251Z,81.50
2022-12-03T02:09:13.453Z,81.30
2022-12-03T02:10:13.435Z,81.40
2022-12-03T02:11:13.693Z,81.70
2022-12-03T02:12:13.605Z,81.50
2022-12-03T02:13:13.824Z,81.80
2022-12-03T02:14:13.699Z,81.70
2022-12-03T02:15:13.630Z,81.40
2022-12-03T02:16:13.904Z,81.00
2022-12-03T02:17:12.949Z,81.40
2022-12-03T02:18:12.800Z,81.50
2022-12-03T02:19:13.718Z,81.10
2022-12-03T02:20:13.757Z,81.40
2022-12-03T02:21:13.719Z,81.00
2022-12-03T02:22:14.119Z,81.40
2022-12-03T02:23:13.275Z,81.20
2022-12-03T02:24:13.227Z,81.40
2022-12-03T02:25:13.314Z,81.70
2022-12-03T02:26:13.168Z,81.60
2022-12-03T02:27:13.130Z,81.40
2022-12-03T02:28:13.073Z,80.90
2022-12-03T02:29:12.957Z,81.20
2022-12-03T02:30:12.893Z,81.20
2022-12-03T02:31:12.907Z,81.40
2022-12-03T02:32:12.943Z,80.90
2022-12-03T02:33:12.954Z,81.10
2022-12-03T02:34:13.735Z,81.50
2022-12-03T02:35:14.047Z,81.20
2022-12-03T02:36:12.905Z,81.40
2022-12-03T02:37:12.853Z,81.60
2022-12-03T02:38:13.684Z,82.00
2022-12-03T02:39:13.583Z,81.80
2022-12-03T02:40:13.575Z,80.90
2022-12-03T02:41:13.723Z,81.40
2022-12-03T02:42:13.740Z,81.40
2022-12-03T02:43:13.690Z,81.80
2022-12-03T02:44:13.580Z,81.60
2022-12-03T02:45:13.453Z,81.40
2022-12-03T02:46:13.466Z,81.40
2022-12-03T02:47:13.408Z,81.30
2022-12-03T02:48:13.661Z,81.50
2022-12-03T02:49:13.548Z,81.70
2022-12-03T02:50:13.393Z,81.50
2022-12-03T02:51:13.279Z,81.50
2022-12-03T02:52:13.273Z,81.60
2022-12-03T02:53:13.240Z,81.60
2022-12-03T02:54:13.187Z,81.60
2022-12-03T02:55:13.276Z,81.40
2022-12-03T02:56:13.250Z,80.70
2022-12-03T02:57:13.166Z,81.20
2022-12-03T02:58:13.089Z,81.50
2022-12-03T02:59:13.289Z,81.40
2022-12-03T03:00:13.140Z,81.20
2022-12-03T03:01:13.356Z,81.00
2022-12-03T03:02:13.338Z,81.00
2022-12-03T03:03:13.321Z,81.40
2022-12-03T03:04:13.206Z,81.30
2022-12-03T03:05:13.282Z,81.40
2022-12-03T03:06:13.164Z,81.10
2022-12-03T03:07:13.394Z,80.70
2022-12-03T03:08:13.390Z,80.50
2022-12-03T03:09:13.492Z,81.10
2022-12-03T03:10:13.515Z,80.80
2022-12-03T03:11:13.713Z,80.70
2022-12-03T03:12:13.682Z,80.30
2022-12-03T03:13:14.074Z,80.80
2022-12-03T03:14:12.976Z,80.80
2022-12-03T03:15:12.951Z,81.00
2022-12-03T03:16:12.925Z,81.40
2022-12-03T03:17:12.832Z,81.30
2022-12-03T03:18:13.724Z,82.00
2022-12-03T03:19:13.607Z,81.10
2022-12-03T03:20:13.618Z,81.50
2022-12-03T03:21:13.575Z,81.20
2022-12-03T03:22:13.419Z,81.80
2022-12-03T03:23:13.515Z,81.50
2022-12-03T03:24:13.427Z,80.00
2022-12-03T03:25:13.270Z,80.90
2022-12-03T03:26:13.558Z,81.10
2022-12-03T03:27:13.475Z,81.10
2022-12-03T03:28:13.533Z,80.90
2022-12-03T03:29:13.502Z,81.30
2022-12-03T03:30:13.870Z,81.30
2022-12-03T03:31:13.808Z,81.50
2022-12-03T03:32:14.071Z,81.40
2022-12-03T03:33:13.100Z,81.10
2022-12-03T03:34:13.300Z,81.20
2022-12-03T03:35:13.412Z,81.80
2022-12-03T03:36:13.471Z,81.80
2022-12-03T03:37:13.285Z,82.20
2022-12-03T03:38:13.268Z,82.40
2022-12-03T03:39:13.362Z,81.90
2022-12-03T03:40:13.405Z,81.10
2022-12-03T03:41:13.278Z,81.20
2022-12-03T03:42:13.848Z,81.70
2022-12-03T03:43:13.776Z,81.80
2022-12-03T03:44:13.999Z,82.00
2022-12-03T03:45:13.196Z,81.80
2022-12-03T03:46:13.501Z,82.10
2022-12-03T03:47:14.061Z,81.60
2022-12-03T03:48:12.926Z,82.10
2022-12-03T03:49:12.956Z,81.80
2022-12-03T03:50:13.054Z,81.90
2022-12-03T03:51:13.448Z,81.00
2022-12-03T03:52:13.862Z,81.20
2022-12-03T03:53:13.902Z,81.60
2022-12-03T03:54:12.949Z,81.60
2022-12-03T03:55:12.909Z,82.00
2022-12-03T03:56:12.820Z,81.60
2022-12-03T03:57:14.227Z,81.80
2022-12-03T03:58:13.323Z,81.80
2022-12-03T03:59:13.281Z,81.20
2022-12-03T04:00:13.461Z,80.60
2022-12-03T04:01:13.978Z,80.60
2022-12-03T04:02:13.555Z,81.00
2022-12-03T04:03:13.542Z,81.70
2022-12-03T04:04:13.550Z,81.30
2022-12-03T04:05:13.473Z,81.60
2022-12-03T04:06:13.399Z,81.50
2022-12-03T04:07:13.657Z,82.10
2022-12-03T04:08:13.683Z,82.00
2022-12-03T04:09:13.779Z,82.00
2022-12-03T04:10:13.661Z,81.50
2022-12-03T04:11:13.737Z,81.20
2022-12-03T04:12:13.814Z,81.10
2022-12-03T04:13:14.038Z,81.20
2022-12-03T04:14:13.095Z,81.50
2022-12-03T04:15:14.212Z,81.60
2022-12-03T04:16:13.167Z,81.90
2022-12-03T04:17:13.231Z,81.90
2022-12-03T04:18:13.200Z,81.20
2022-12-03T04:19:13.606Z,80.90
2022-12-03T04:20:13.473Z,81.30
2022-12-03T04:21:14.164Z,81.10
2022-12-03T04:22:13.256Z,81.20
2022-12-03T04:23:13.318Z,80.90
2022-12-03T04:24:13.203Z,80.60
2022-12-03T04:25:13.044Z,80.20
2022-12-03T04:26:13.134Z,80.50
2022-12-03T04:27:13.191Z,81.10
2022-12-03T04:28:13.157Z,81.40
2022-12-03T04:29:13.231Z,80.50
2022-12-03T04:30:13.412Z,79.80
2022-12-03T04:31:13.593Z,79.50
2022-12-03T04:32:13.566Z,79.80
2022-12-03T04:33:13.773Z,80.30
2022-12-03T04:34:14.566Z,80.40
2022-12-03T04:35:13.745Z,80.30
2022-12-03T04:36:13.815Z,79.90
2022-12-03T04:37:13.934Z,81.00
2022-12-03T04:38:12.760Z,81.10
2022-12-03T04:39:13.880Z,81.00
2022-12-03T04:40:12.774Z,81.10
2022-12-03T04:41:13.884Z,80.60
2022-12-03T04:42:13.881Z,80.80
2022-12-03T04:43:14.151Z,81.20
2022-12-03T04:44:13.134Z,81.60
2022-12-03T04:45:13.043Z,81.10
2022-12-03T04:46:12.976Z,81.40
2022-12-03T04:47:13.342Z,81.80
2022-12-03T04:48:13.438Z,81.40
2022-12-03T04:49:13.358Z,81.70
2022-12-03T04:50:13.326Z,81.60
2022-12-03T04:51:13.421Z,81.00
2022-12-03T04:52:13.595Z,80.80
2022-12-03T04:53:13.640Z,80.70
2022-12-03T04:54:13.455Z,80.50
2022-12-03T04:55:14.836Z,80.10
2022-12-03T04:56:13.858Z,80.80
2022-12-03T04:57:13.988Z,80.50
2022-12-03T04:58:12.965Z,80.30
2022-12-03T04:59:16.238Z,80.70
2022-12-03T05:00:13.619Z,80.50
2022-12-03T05:01:13.455Z,80.90
2022-12-03T05:02:13.957Z,80.90
2022-12-03T05:03:12.991Z,80.50
2022-12-03T05:04:12.873Z,80.60
2022-12-03T05:05:13.773Z,81.10
2022-12-03T05:06:13.951Z,81.30
2022-12-03T05:07:13.254Z,81.00
2022-12-03T05:08:13.630Z,81.20
2022-12-03T05:09:13.926Z,81.00
2022-12-03T05:10:12.795Z,80.80
2022-12-03T05:11:13.815Z,81.00
2022-12-03T05:12:13.671Z,80.80
2022-12-03T05:13:13.687Z,80.80
2022-12-03T05:14:13.695Z,80.00
2022-12-03T05:15:13.703Z,80.50
2022-12-03T05:16:13.684Z,81.10
2022-12-03T05:17:13.733Z,80.80
2022-12-03T05:18:13.680Z,80.70
2022-12-03T05:19:13.582Z,81.00
2022-12-03T05:20:13.482Z,81.40
2022-12-03T05:21:13.499Z,81.60
2022-12-03T05:22:13.602Z,81.70
2022-12-03T05:23:13.596Z,81.60
2022-12-03T05:24:13.547Z,81.90
2022-12-03T05:25:13.506Z,81.90
2022-12-03T05:26:13.454Z,81.90
2022-12-03T05:27:15.827Z,81.40
2022-12-03T05:28:13.773Z,81.50
2022-12-03T05:29:13.975Z,81.00
2022-12-03T05:30:13.139Z,81.60
2022-12-03T05:31:13.142Z,82.00
2022-12-03T05:32:13.331Z,81.20
2022-12-03T05:33:13.337Z,81.50
2022-12-03T05:34:13.318Z,81.30
2022-12-03T05:35:13.577Z,81.10
2022-12-03T05:36:13.627Z,80.80
2022-12-03T05:37:14.078Z,80.90
2022-12-03T05:38:13.860Z,81.00
2022-12-03T05:39:14.035Z,80.80
2022-12-03T05:40:13.144Z,81.70
2022-12-03T05:41:13.230Z,81.70
2022-12-03T05:42:13.401Z,82.10
2022-12-03T05:43:13.418Z,82.10
2022-12-03T05:44:18.877Z,81.20
2022-12-03T05:45:13.421Z,81.10
2022-12-03T05:46:13.657Z,81.30
2022-12-03T05:47:13.951Z,81.50
2022-12-03T05:48:13.053Z,81.00
2022-12-03T05:49:13.185Z,81.20
2022-12-03T05:50:13.585Z,80.90
2022-12-03T05:51:13.822Z,81.70
2022-12-03T05:52:13.733Z,81.20
2022-12-03T05:53:13.628Z,81.30
2022-12-03T05:54:13.538Z,81.80
2022-12-03T05:55:13.716Z,81.80
2022-12-03T05:56:13.755Z,82.10
2022-12-03T05:57:13.659Z,81.70
2022-12-03T05:58:13.911Z,82.00
2022-12-03T05:59:12.977Z,82.20
2022-12-03T06:00:12.947Z,81.50
2022-12-03T06:01:13.227Z,81.60
2022-12-03T06:02:13.400Z,81.30
2022-12-03T06:03:13.752Z,81.70
2022-12-03T06:04:13.896Z,82.20
2022-12-03T06:05:13.074Z,82.20
2022-12-03T06:06:13.066Z,82.00
2022-12-03T06:07:14.305Z,81.30
2022-12-03T06:08:13.548Z,81.80
2022-12-03T06:09:13.439Z,81.50
2022-12-03T06:10:13.296Z,81.60
2022-12-03T06:11:13.162Z,81.90
2022-12-03T06:12:13.189Z,82.30
2022-12-03T06:13:13.446Z,82.50
2022-12-03T06:14:13.790Z,82.30
2022-12-03T06:15:13.717Z,81.90
2022-12-03T06:16:13.863Z,81.70
2022-12-03T06:17:12.925Z,81.50
2022-12-03T06:18:12.877Z,80.80
2022-12-03T06:19:13.738Z,80.60
2022-12-03T06:20:13.726Z,80.40
2022-12-03T06:21:13.602Z,80.90
2022-12-03T06:22:13.474Z,80.70
2022-12-03T06:23:13.405Z,81.20
2022-12-03T06:24:13.776Z,81.30
2022-12-03T06:25:13.771Z,81.70
2022-12-03T06:26:13.623Z,81.60
2022-12-03T06:27:13.540Z,81.30
2022-12-03T06:28:13.822Z,81.20
2022-12-03T06:29:13.704Z,80.60
2022-12-03T06:30:13.851Z,80.40
2022-12-03T06:31:14.030Z,79.90
2022-12-03T06:32:13.236Z,80.70
2022-12-03T06:33:13.191Z,81.30
2022-12-03T06:34:13.074Z,81.60
2022-12-03T06:35:12.978Z,81.70
2022-12-03T06:36:13.088Z,82.20
2022-12-03T06:37:13.009Z,82.10
2022-12-03T06:38:13.029Z,82.80
2022-12-03T06:39:12.871Z,82.80
2022-12-03T06:40:13.722Z,82.90
2022-12-03T06:41:13.766Z,82.30
2022-12-03T06:42:13.705Z,82.10
2022-12-03T06:43:14.143Z,82.50
2022-12-03T06:44:13.049Z,83.00
2022-12-03T06:45:13.009Z,83.00
2022-12-03T06:46:12.930Z,82.90
2022-12-03T06:47:13.264Z,82.80
2022-12-03T06:48:14.067Z,83.00
2022-12-03T06:49:13.227Z,83.10
2022-12-03T06:50:13.796Z,83.10
2022-12-03T06:51:13.627Z,82.70
2022-12-03T06:52:13.592Z,82.80
2022-12-03T06:53:13.579Z,82.20
2022-12-03T06:54:13.506Z,82.30
2022-12-03T06:55:13.514Z,82.00
2022-12-03T06:56:13.385Z,82.10
2022-12-03T06:57:13.668Z,82.60
2022-12-03T06:58:13.636Z,82.70
2022-12-03T06:59:13.678Z,83.10
2022-12-03T07:00:13.608Z,83.40
2022-12-03T07:01:13.810Z,83.50
2022-12-03T07:02:13.772Z,83.90
2022-12-03T07:03:13.751Z,83.40
2022-12-03T07:04:13.877Z,82.40
2022-12-03T07:05:12.883Z,82.80
2022-12-03T07:06:12.736Z,83.20
2022-12-03T07:07:13.783Z,83.40
2022-12-03T07:08:13.728Z,83.60
2022-12-03T07:09:13.673Z,83.10
2022-12-03T07:10:13.714Z,82.60
2022-12-03T07:11:13.931Z,83.00
2022-12-03T07:12:13.089Z,83.20
2022-12-03T07:13:13.385Z,83.40
2022-12-03T07:14:13.249Z,82.90
2022-12-03T07:15:13.287Z,83.10
2022-12-03T07:16:13.548Z,83.20
2022-12-03T07:17:13.582Z,83.10
2022-12-03T07:18:13.408Z,83.00
2022-12-03T07:19:13.587Z,83.10
2022-12-03T07:20:13.765Z,83.00
2022-12-03T07:21:13.565Z,83.20
2022-12-03T07:22:13.522Z,83.00
2022-12-03T07:23:13.611Z,82.90
2022-12-03T07:24:13.661Z,82.40
2022-12-03T07:25:16.866Z,82.40
2022-12-03T07:26:13.521Z,81.90
2022-12-03T07:27:13.383Z,81.90
2022-12-03T07:28:13.436Z,81.80
2022-12-03T07:29:13.533Z,81.70
2022-12-03T07:30:14.284Z,82.30
2022-12-03T07:31:13.324Z,82.30
2022-12-03T07:32:13.195Z,82.70
2022-12-03T07:33:13.504Z,82.30
2022-12-03T07:34:13.448Z,81.90
2022-12-03T07:35:13.329Z,81.70
2022-12-03T07:36:13.587Z,82.50
2022-12-03T07:37:13.529Z,82.60
2022-12-03T07:38:13.723Z,81.90
2022-12-03T07:39:13.723Z,82.20
2022-12-03T07:40:13.586Z,82.40
2022-12-03T07:41:13.958Z,82.10
2022-12-03T07:42:13.173Z,82.40
2022-12-03T07:43:13.661Z,83.00
2022-12-03T07:44:14.724Z,82.80
2022-12-03T07:45:12.793Z,82.50
2022-12-03T07:46:13.827Z,82.50
2022-12-03T07:47:13.987Z,81.70
2022-12-03T07:48:13.161Z,81.70
2022-12-03T07:49:13.085Z,81.30
2022-12-03T07:50:12.997Z,81.10
2022-12-03T07:51:15.367Z,81.80
2022-12-03T07:52:13.612Z,81.70
2022-12-03T07:53:13.634Z,82.00
2022-12-03T07:54:14.809Z,82.50
2022-12-03T07:55:14.059Z,81.90
2022-12-03T07:56:12.894Z,81.60
2022-12-03T07:57:13.259Z,81.80
2022-12-03T07:58:13.537Z,81.40
2022-12-03T07:59:13.628Z,81.50
2022-12-03T08:00:13.629Z,81.20
2022-12-03T08:01:13.629Z,80.90
2022-12-03T08:02:19.528Z,80.50
2022-12-03T08:03:14.179Z,80.90
2022-12-03T08:04:13.103Z,80.50
2022-12-03T08:05:13.049Z,81.20
2022-12-03T08:06:12.967Z,81.60
2022-12-03T08:07:12.851Z,82.00
2022-12-03T08:08:14.933Z,81.80
2022-12-03T08:09:15.994Z,82.00
2022-12-03T08:10:13.446Z,81.50
2022-12-03T08:11:13.565Z,81.40
2022-12-03T08:12:13.473Z,81.40
2022-12-03T08:13:13.533Z,80.90
2022-12-03T08:14:13.412Z,81.30
2022-12-03T08:15:13.366Z,81.60
2022-12-03T08:16:13.477Z,81.90
2022-12-03T08:17:13.719Z,81.60
2022-12-03T08:18:13.681Z,81.70
2022-12-03T08:19:13.689Z,81.40
2022-12-03T08:20:13.730Z,80.50
2022-12-03T08:21:14.065Z,81.20
2022-12-03T08:22:12.997Z,81.10
2022-12-03T08:23:13.340Z,81.50
2022-12-03T08:24:13.164Z,81.80
2022-12-03T08:25:13.088Z,81.20
2022-12-03T08:26:12.932Z,81.40
2022-12-03T08:27:12.976Z,80.40
2022-12-03T08:28:12.969Z,80.10
2022-12-03T08:29:12.930Z,81.20
2022-12-03T08:30:12.852Z,80.80
2022-12-03T08:31:13.810Z,80.90
2022-12-03T08:32:14.086Z,81.80
2022-12-03T08:33:13.129Z,81.40
2022-12-03T08:34:13.396Z,81.30
2022-12-03T08:35:13.521Z,81.70
2022-12-03T08:36:13.774Z,81.60
2022-12-03T08:37:13.768Z,80.90
2022-12-03T08:38:14.158Z,81.20
2022-12-03T08:39:13.029Z,81.60
2022-12-03T08:40:14.686Z,81.80
2022-12-03T08:41:13.638Z,82.00
2022-12-03T08:42:14.101Z,81.80
2022-12-03T08:43:13.393Z,81.50
2022-12-03T08:44:13.216Z,81.80
2022-12-03T08:45:13.275Z,81.80
2022-12-03T08:46:13.295Z,82.00
2022-12-03T08:47:13.721Z,81.00
2022-12-03T08:48:14.048Z,80.90
2022-12-03T08:49:13.324Z,81.40
2022-12-03T08:50:13.468Z,81.40
2022-12-03T08:51:13.782Z,80.70
2022-12-03T08:52:14.040Z,80.40
2022-12-03T08:53:13.296Z,80.30
2022-12-03T08:54:13.659Z,81.30
2022-12-03T08:55:13.898Z,81.70
2022-12-03T08:56:12.814Z,81.50
2022-12-03T08:57:13.799Z,81.70
2022-12-03T08:58:19.258Z,81.00
2022-12-03T08:59:13.354Z,80.90
2022-12-03T09:00:13.282Z,80.40
2022-12-03T09:01:13.397Z,80.60
2022-12-03T09:02:13.459Z,80.90
2022-12-03T09:03:13.250Z,80.60
2022-12-03T09:04:13.518Z,81.00
2022-12-03T09:05:13.682Z,80.90
2022-12-03T09:06:13.637Z,80.30
2022-12-03T09:07:13.587Z,81.10
2022-12-03T09:08:13.965Z,80.60
2022-12-03T09:09:13.328Z,79.40
2022-12-03T09:10:13.242Z,79.40
2022-12-03T09:11:13.227Z,79.20
2022-12-03T09:12:13.156Z,79.70
2022-12-03T09:13:13.158Z,78.90
2022-12-03T09:14:18.337Z,78.10
2022-12-03T09:15:13.970Z,78.10
2022-12-03T09:16:12.984Z,79.50
2022-12-03T09:17:13.005Z,79.30
2022-12-03T09:18:12.906Z,79.30
2022-12-03T09:19:12.795Z,79.30
2022-12-03T09:20:13.839Z,79.50
2022-12-03T09:21:13.673Z,80.60
2022-12-03T09:22:13.950Z,80.40
2022-12-03T09:23:13.238Z,79.60
2022-12-03T09:24:13.164Z,79.40
2022-12-03T09:25:13.306Z,79.50
2022-12-03T09:26:13.194Z,78.60
2022-12-03T09:27:13.324Z,78.70
2022-12-03T09:28:13.255Z,79.30
2022-12-03T09:29:13.205Z,79.20
2022-12-03T09:30:13.115Z,79.40
2022-12-03T09:31:13.416Z,79.30
2022-12-03T09:32:18.134Z,79.10
2022-12-03T09:33:14.117Z,78.40
2022-12-03T09:34:13.127Z,77.50
2022-12-03T09:35:12.980Z,77.90
2022-12-03T09:36:12.889Z,78.60
2022-12-03T09:37:14.104Z,78.50
2022-12-03T09:38:48.384Z,78.00
2022-12-03T09:39:13.953Z,77.70
2022-12-03T09:40:12.810Z,78.10
2022-12-03T09:41:13.788Z,77.00
2022-12-03T09:42:13.814Z,77.20
2022-12-03T09:43:13.903Z,77.20
2022-12-03T09:44:17.570Z,77.60
2022-12-03T09:45:12.926Z,78.00
2022-12-03T09:46:13.221Z,78.50
2022-12-03T09:47:13.147Z,78.80
2022-12-03T09:48:13.042Z,78.60
2022-12-03T09:49:15.859Z,78.20
2022-12-03T09:50:13.311Z,78.70
2022-12-03T09:51:13.685Z,77.70
2022-12-03T09:52:13.859Z,78.00
2022-12-03T09:53:13.998Z,77.20
2022-12-03T09:54:13.180Z,77.10
2022-12-03T09:55:13.102Z,76.80
2022-12-03T09:56:13.145Z,76.90
2022-12-03T09:57:13.245Z,77.90
2022-12-03T09:58:13.239Z,77.70
2022-12-03T09:59:13.501Z,78.60
2022-12-03T10:00:13.758Z,78.90
2022-12-03T10:01:13.702Z,78.60
2022-12-03T10:02:14.052Z,78.50
2022-12-03T10:03:12.979Z,78.40
2022-12-03T10:04:12.894Z,78.80
2022-12-03T10:05:12.836Z,78.10
2022-12-03T10:06:13.769Z,78.80
2022-12-03T10:07:13.689Z,78.40
2022-12-03T10:08:14.168Z,77.30
2022-12-03T10:09:13.161Z,77.60
2022-12-03T10:10:13.245Z,77.60
2022-12-03T10:11:13.509Z,78.10
2022-12-03T10:12:13.476Z,78.40
2022-12-03T10:13:13.402Z,78.50
2022-12-03T10:14:13.445Z,78.30
2022-12-03T10:15:13.448Z,77.50
2022-12-03T10:16:13.628Z,77.40
2022-12-03T10:17:13.667Z,77.00
2022-12-03T10:18:14.999Z,75.80
2022-12-03T10:19:12.888Z,75.30
2022-12-03T10:20:12.934Z,75.50
2022-12-03T10:21:13.195Z,75.50
2022-12-03T10:22:13.316Z,76.50
2022-12-03T10:23:13.275Z,76.50
2022-12-03T10:24:13.349Z,76.90
2022-12-03T10:25:13.352Z,77.60
2022-12-03T10:26:13.472Z,77.70
2022-12-03T10:27:13.768Z,77.80
2022-12-03T10:28:13.886Z,77.40
2022-12-03T10:29:12.995Z,77.20
2022-12-03T10:30:13.135Z,77.50
2022-12-03T10:31:13.448Z,76.30
2022-12-03T10:32:13.552Z,75.50
2022-12-03T10:33:15.864Z,75.00
2022-12-03T10:34:13.881Z,74.70
2022-12-03T10:35:12.819Z,74.70
2022-12-03T10:36:14.892Z,75.30
2022-12-03T10:37:12.728Z,75.80
2022-12-03T10:38:13.911Z,76.60
2022-12-03T10:39:12.848Z,76.30
2022-12-03T10:40:13.732Z,77.20
2022-12-03T10:41:13.642Z,76.80
2022-12-03T10:42:14.050Z,76.90
2022-12-03T10:43:12.943Z,77.40
2022-12-03T10:44:12.863Z,77.50
2022-12-03T10:45:13.847Z,78.00
2022-12-03T10:46:13.838Z,77.70
2022-12-03T10:47:13.419Z,78.30
2022-12-03T10:48:13.842Z,77.90
2022-12-03T10:49:13.997Z,77.60
2022-12-03T10:50:12.886Z,77.80
2022-12-03T10:51:13.834Z,77.80
2022-12-03T10:52:13.921Z,77.30
2022-12-03T10:53:13.128Z,78.30
2022-12-03T10:54:13.073Z,78.10
2022-12-03T10:55:13.182Z,78.70
2022-12-03T10:56:13.078Z,77.70
2022-12-03T10:57:14.092Z,77.40
2022-12-03T10:58:13.019Z,77.00
2022-12-03T10:59:12.900Z,76.70
2022-12-03T11:00:12.925Z,76.80
2022-12-03T11:01:13.066Z,76.20
2022-12-03T11:02:13.036Z,75.40
2022-12-03T11:03:12.938Z,76.50
2022-12-03T11:04:13.397Z,76.40
2022-12-03T11:05:13.448Z,75.80
2022-12-03T11:06:13.589Z,76.70
2022-12-03T11:07:13.766Z,77.30
2022-12-03T11:08:13.853Z,77.50
2022-12-03T11:09:12.879Z,76.90
2022-12-03T11:10:12.771Z,76.30
2022-12-03T11:11:13.610Z,76.00
2022-12-03T11:12:14.414Z,76.20
2022-12-03T11:13:13.420Z,76.30
2022-12-03T11:14:18.057Z,75.70
2022-12-03T11:15:13.237Z,76.20
2022-12-03T11:16:13.237Z,76.60
2022-12-03T11:17:13.320Z,76.30
2022-12-03T11:18:13.325Z,76.20
2022-12-03T11:19:13.504Z,76.20
2022-12-03T11:20:18.098Z,76.30
2022-12-03T11:21:12.959Z,75.90
2022-12-03T11:22:12.981Z,75.30
2022-12-03T11:23:12.948Z,76.30
2022-12-03T11:25:31.147Z,76.30
2022-12-03T11:26:18.574Z,77.00
2022-12-03T11:27:13.541Z,75.70
2022-12-03T11:28:13.881Z,74.90
2022-12-03T11:29:13.822Z,74.30
2022-12-03T11:30:13.860Z,75.50
2022-12-03T11:31:14.061Z,76.80
2022-12-03T11:32:12.898Z,76.40
2022-12-03T11:33:12.849Z,75.30
2022-12-03T11:34:14.852Z,75.20
2022-12-03T11:35:13.866Z,74.70
2022-12-03T11:36:14.029Z,74.70
2022-12-03T11:37:12.898Z,74.60
2022-12-03T11:38:13.117Z,75.50
2022-12-03T11:39:13.052Z,76.10
2022-12-03T11:40:12.975Z,75.90
2022-12-03T11:41:12.823Z,76.00
2022-12-03T11:42:13.851Z,76.00
2022-12-03T11:43:14.227Z,75.90
2022-12-03T11:44:13.126Z,76.40
2022-12-03T11:45:13.004Z,75.70
2022-12-03T11:46:13.000Z,76.40
2022-12-03T11:47:13.061Z,75.80
2022-12-03T11:48:13.028Z,75.30
2022-12-03T11:49:13.013Z,75.60
2022-12-03T11:50:13.712Z,75.50
2022-12-03T11:51:13.808Z,74.90
2022-12-03T11:52:14.317Z,74.90
2022-12-03T11:53:13.236Z,75.60
2022-12-03T11:54:13.344Z,76.10
2022-12-03T11:55:13.223Z,76.00
2022-12-03T11:56:13.053Z,75.30
2022-12-03T11:57:12.959Z,75.70
2022-12-03T11:58:14.124Z,76.70
2022-12-03T11:59:13.111Z,76.50
2022-12-03T12:00:12.964Z,76.90
2022-12-03T12:01:12.984Z,76.50
2022-12-03T12:02:13.435Z,77.00
2022-12-03T12:03:13.563Z,76.90
2022-12-03T12:04:13.632Z,77.40
2022-12-03T12:05:13.703Z,77.30
2022-12-03T12:06:13.792Z,77.50
2022-12-03T12:07:13.797Z,77.60
2022-12-03T12:08:14.149Z,76.70
2022-12-03T12:09:13.147Z,76.50
2022-12-03T12:10:13.016Z,76.10
2022-12-03T12:11:13.193Z,76.20
2022-12-03T12:12:13.099Z,75.80
2022-12-03T12:13:12.994Z,75.30
2022-12-03T12:14:12.917Z,75.10
2022-12-03T12:15:12.940Z,74.60
2022-12-03T12:16:13.018Z,74.90
2022-12-03T12:17:13.166Z,75.30
2022-12-03T12:18:38.034Z,76.20
2022-12-03T12:19:32.395Z,76.70
2022-12-03T12:20:13.565Z,76.70
2022-12-03T12:21:18.621Z,76.30
2022-12-03T12:22:13.689Z,76.40
2022-12-03T12:23:13.850Z,76.60
2022-12-03T12:24:14.116Z,76.70
2022-12-03T12:25:13.089Z,76.50
2022-12-03T12:26:13.262Z,76.70
2022-12-03T12:27:13.562Z,77.10
2022-12-03T12:28:13.520Z,76.60
2022-12-03T12:29:13.541Z,76.50
2022-12-03T12:30:13.863Z,76.10
2022-12-03T12:31:14.117Z,76.20
2022-12-03T12:32:13.075Z,76.60
2022-12-03T12:33:13.355Z,77.00
2022-12-03T12:34:14.111Z,76.80
2022-12-03T12:35:13.469Z,77.50
2022-12-03T12:36:14.349Z,77.40
2022-12-03T12:37:13.936Z,77.00
2022-12-03T12:38:13.130Z,76.70
2022-12-03T12:39:13.035Z,76.90
2022-12-03T12:40:13.162Z,77.00
2022-12-03T12:41:13.458Z,76.70
2022-12-03T12:42:14.458Z,76.70
2022-12-03T12:43:17.635Z,77.10
2022-12-03T12:44:13.329Z,77.00
2022-12-03T12:45:13.264Z,76.50
2022-12-03T12:46:31.385Z,76.70
2022-12-03T12:47:13.277Z,76.70
2022-12-03T12:48:13.524Z,76.80
2022-12-03T12:49:13.914Z,76.90
2022-12-03T12:50:12.908Z,76.90
2022-12-03T12:51:12.821Z,77.20
2022-12-03T12:52:13.873Z,77.10
2022-12-03T12:53:14.162Z,76.20
2022-12-03T12:54:13.039Z,76.10